Terminal Aerodrome Forecast
Issued by NWS Charleston, WV

Home | Current Version | Previous Version | Text Only | Print | Product List | Glossary On
Versions: 1 2 3 4 5 6 7 8 9 10 11 12 13 14 15 16 17 18 19 20 21 22 23 24 25 26 27 28 29
323
FTUS41 KRLX 232354 CCB
TAFHTS
TAF COR
KHTS 232354Z 2400/2424 02006KT 6SM -RA BR OVC009
     FM240100 30006KT P6SM OVC012
     FM242100 27008KT P6SM OVC020=

USA.gov is the U.S. government's official web portal to all federal, state and local government web resources and services.